Time;durP1;ratioP1;P1;durP2;ratioP2;P2;SDS_P1;SDS_P2;PMS_P1;PMS_P2;Temp;Humidity;BMP_temperature;BMP_pressure;BME280_temperature;BME280_humidity;BME280_pressure;Samples;Min_cycle;Max_cycle;Signal;HPM_P1;HPM_P2
2023/02/07 00:01:09;;;;;;;9.93;4.05;;;-0.30;83.10;;;;;;4953470;28;92504;-82
2023/02/07 00:03:36;;;;;;;10.15;3.92;;;-0.30;84.00;;;;;;4949319;28;98125;-81
2023/02/07 00:06:29;;;;;;;8.93;4.18;;;-0.40;83.80;;;;;;4950171;28;94518;-78
2023/02/07 00:08:57;;;;;;;8.48;4.07;;;-0.40;83.40;;;;;;4942897;28;92519;-78
2023/02/07 00:11:23;;;;;;;8.02;3.85;;;-0.40;83.10;;;;;;4948174;28;94539;-79
2023/02/07 00:13:53;;;;;;;8.52;3.50;;;-0.50;83.50;;;;;;4950642;28;93435;-79
2023/02/07 00:16:19;;;;;;;9.27;3.47;;;-0.50;83.80;;;;;;4944388;28;93100;-79
2023/02/07 00:18:45;;;;;;;8.27;3.25;;;-0.50;83.50;;;;;;4951172;28;92487;-77
2023/02/07 00:21:14;;;;;;;10.35;4.07;;;-0.50;83.90;;;;;;4950788;28;91894;-76
2023/02/07 00:23:40;;;;;;;6.82;3.35;;;-0.50;83.50;;;;;;4949775;28;93299;-76
2023/02/07 00:26:08;;;;;;;8.25;3.25;;;-0.60;82.50;;;;;;4946314;28;93503;-77
2023/02/07 00:28:34;;;;;;;8.48;3.78;;;-0.60;82.40;;;;;;4949880;28;94053;-77
2023/02/07 00:31:10;;;;;;;8.15;3.70;;;-0.60;82.30;;;;;;4949493;28;92248;-76
2023/02/07 00:33:38;;;;;;;8.23;3.50;;;-0.60;82.50;;;;;;4951746;28;95837;-76
2023/02/07 00:36:06;;;;;;;8.10;3.30;;;-0.60;82.60;;;;;;4944909;28;95552;-77
2023/02/07 00:38:32;;;;;;;8.68;3.15;;;-0.60;82.60;;;;;;4949574;28;93695;-78
2023/02/07 00:41:00;;;;;;;12.57;3.90;;;-0.60;83.00;;;;;;4946590;28;93619;-78
2023/02/07 00:43:26;;;;;;;7.88;3.40;;;-0.60;83.30;;;;;;4950676;28;93256;-78
2023/02/07 00:45:52;;;;;;;7.85;3.20;;;-0.60;83.00;;;;;;4948184;28;93790;-79
2023/02/07 00:48:18;;;;;;;8.20;3.03;;;-0.70;83.10;;;;;;4949619;28;93908;-80
2023/02/07 00:50:43;;;;;;;7.55;3.70;;;-0.70;83.50;;;;;;4952652;28;92499;-79
2023/02/07 00:53:09;;;;;;;8.13;3.78;;;-0.70;83.80;;;;;;4946921;28;95185;-79
2023/02/07 00:55:34;;;;;;;9.90;4.15;;;-0.70;84.00;;;;;;4949021;28;94803;-79
2023/02/07 00:58:00;;;;;;;8.43;3.95;;;-0.80;84.20;;;;;;4949732;28;92803;-79
2023/02/07 01:00:26;;;;;;;9.93;3.85;;;-0.80;84.30;;;;;;4946191;28;94123;-77
2023/02/07 01:02:51;;;;;;;7.95;3.70;;;-0.80;84.20;;;;;;4948073;28;93694;-76
2023/02/07 01:05:17;;;;;;;11.70;4.28;;;-0.80;85.20;;;;;;4946504;28;94326;-77
2023/02/07 01:07:43;;;;;;;9.73;4.78;;;-0.90;85.50;;;;;;4947513;28;92204;-80
2023/02/07 01:10:09;;;;;;;13.27;4.10;;;-0.90;85.60;;;;;;4948811;28;91940;-81
2023/02/07 01:12:35;;;;;;;10.77;4.43;;;-0.90;85.20;;;;;;4951916;28;95588;-80
2023/02/07 01:15:01;;;;;;;9.90;4.10;;;-0.90;85.40;;;;;;4951341;28;92592;-79
2023/02/07 01:17:26;;;;;;;10.20;4.90;;;-0.90;85.70;;;;;;4954299;28;93032;-80
2023/02/07 01:19:59;;;;;;;9.93;3.65;;;-1.00;86.00;;;;;;4953988;28;92380;-81
2023/02/07 01:22:26;;;;;;;10.93;4.07;;;-1.00;86.50;;;;;;4952332;28;93582;-80
2023/02/07 01:24:53;;;;;;;9.60;4.32;;;-1.00;87.40;;;;;;4952567;28;93324;-82
2023/02/07 01:27:19;;;;;;;9.57;4.60;;;-1.00;87.70;;;;;;4953326;28;92200;-82
2023/02/07 01:29:45;;;;;;;10.38;4.88;;;-1.10;87.90;;;;;;4951123;28;92197;-81
2023/02/07 01:32:11;;;;;;;11.57;5.63;;;-1.10;88.30;;;;;;4947186;28;93726;-81
2023/02/07 01:34:37;;;;;;;13.05;6.13;;;-1.10;88.40;;;;;;4948649;28;93314;-80
2023/02/07 01:37:02;;;;;;;12.82;6.03;;;-1.20;89.20;;;;;;4949061;28;93835;-82
2023/02/07 01:39:28;;;;;;;15.02;8.10;;;-1.20;88.80;;;;;;4946886;28;92572;-80
2023/02/07 01:41:54;;;;;;;15.55;6.43;;;-1.20;88.90;;;;;;4946424;28;94310;-80
2023/02/07 01:44:22;;;;;;;15.57;6.00;;;-1.20;89.90;;;;;;4946160;28;94321;-80
2023/02/07 01:46:50;;;;;;;17.05;5.60;;;-1.20;90.00;;;;;;4950066;28;92422;-82
2023/02/07 01:49:29;;;;;;;11.07;5.53;;;-1.20;90.00;;;;;;4949971;28;92178;-81
2023/02/07 01:52:09;;;;;;;12.32;5.65;;;-1.20;89.50;;;;;;4947125;28;93740;-81
2023/02/07 01:54:36;;;;;;;11.90;4.75;;;-1.20;89.50;;;;;;4950757;28;93890;-82
2023/02/07 01:57:14;;;;;;;12.15;5.55;;;-1.30;89.40;;;;;;4949872;28;93558;-80
2023/02/07 01:59:42;;;;;;;12.70;5.70;;;-1.30;89.70;;;;;;4949493;28;93893;-81
2023/02/07 02:02:12;;;;;;;10.88;5.20;;;-1.30;89.90;;;;;;4944941;28;93997;-82
2023/02/07 02:04:39;;;;;;;12.57;5.22;;;-1.30;90.20;;;;;;4952466;28;93686;-80
2023/02/07 02:07:07;;;;;;;11.82;5.65;;;-1.30;90.30;;;;;;4952546;28;93636;-81
2023/02/07 02:09:33;;;;;;;11.77;5.35;;;-1.40;90.30;;;;;;4951068;28;92347;-81
2023/02/07 02:12:21;;;;;;;13.30;6.03;;;-1.30;90.40;;;;;;4950050;28;93547;-81
2023/02/07 02:15:14;;;;;;;12.82;5.53;;;-1.40;90.70;;;;;;4949753;28;92657;-80
2023/02/07 02:18:06;;;;;;;12.40;5.55;;;-1.40;90.50;;;;;;4953957;28;92389;-79
2023/02/07 02:20:51;;;;;;;11.82;5.57;;;-1.40;90.80;;;;;;4951930;28;92353;-81
2023/02/07 02:23:24;;;;;;;10.95;5.50;;;-1.50;91.00;;;;;;4949170;28;94417;-80
2023/02/07 02:26:18;;;;;;;12.10;5.47;;;-1.50;90.70;;;;;;4944988;28;93108;-77
2023/02/07 02:29:03;;;;;;;14.15;5.53;;;-1.50;90.60;;;;;;4951543;28;93039;-77
2023/02/07 02:31:52;;;;;;;12.23;5.28;;;-1.50;90.90;;;;;;4947934;28;92657;-77
2023/02/07 02:34:34;;;;;;;12.70;5.75;;;-1.60;91.00;;;;;;4950186;28;93826;-77
2023/02/07 02:36:59;;;;;;;16.08;5.90;;;-1.60;91.10;;;;;;4944833;28;93669;-78
2023/02/07 02:39:59;;;;;;;12.90;6.00;;;-1.60;90.80;;;;;;4945776;28;92835;-78
2023/02/07 02:42:32;;;;;;;12.63;5.70;;;-1.60;90.80;;;;;;4948735;28;92366;-77
2023/02/07 02:45:07;;;;;;;12.02;5.45;;;-1.60;90.80;;;;;;4946912;28;94346;-80
2023/02/07 02:47:35;;;;;;;12.98;5.95;;;-1.70;90.80;;;;;;4947801;28;92779;-78
2023/02/07 02:50:00;;;;;;;13.05;5.78;;;-1.70;91.20;;;;;;4950521;28;92481;-79
2023/02/07 02:52:27;;;;;;;16.23;6.50;;;-1.70;91.20;;;;;;4951588;28;91907;-79
2023/02/07 02:54:53;;;;;;;12.88;5.78;;;-1.70;91.10;;;;;;4948372;28;93481;-80
2023/02/07 02:57:26;;;;;;;12.07;5.50;;;-1.70;91.40;;;;;;4952271;28;93080;-78
2023/02/07 03:00:05;;;;;;;11.90;5.60;;;-1.70;91.60;;;;;;4950759;28;93142;-81
2023/02/07 03:02:38;;;;;;;13.05;5.55;;;-1.70;91.10;;;;;;4947687;28;93569;-82
2023/02/07 03:05:09;;;;;;;17.58;5.63;;;-1.70;91.10;;;;;;4948595;28;94755;-82
2023/02/07 03:08:02;;;;;;;17.45;5.93;;;-1.70;91.10;;;;;;4951496;28;92979;-79
2023/02/07 03:10:37;;;;;;;12.85;5.65;;;-1.80;91.10;;;;;;4946847;28;92636;-79
2023/02/07 03:13:16;;;;;;;10.07;4.95;;;-1.80;91.30;;;;;;4949209;28;92525;-80
2023/02/07 03:15:44;;;;;;;10.13;4.78;;;-1.80;91.40;;;;;;4946978;28;93326;-78
2023/02/07 03:18:26;;;;;;;12.27;5.70;;;-1.80;91.20;;;;;;4949118;28;92500;-79
2023/02/07 03:21:00;;;;;;;12.50;4.97;;;-1.80;91.00;;;;;;4946615;28;93730;-77
2023/02/07 03:23:28;;;;;;;10.10;4.55;;;-1.80;91.20;;;;;;4950953;28;92476;-80
2023/02/07 03:25:57;;;;;;;12.65;5.18;;;-1.80;91.20;;;;;;4947844;28;95216;-79
2023/02/07 03:28:26;;;;;;;11.80;4.75;;;-1.90;91.30;;;;;;4948991;28;96023;-80
2023/02/07 03:30:54;;;;;;;10.88;4.45;;;-1.90;91.30;;;;;;4950073;28;93691;-78
2023/02/07 03:33:22;;;;;;;10.23;4.47;;;-1.90;90.90;;;;;;4951061;28;92456;-80
2023/02/07 03:36:07;;;;;;;11.35;4.80;;;-1.90;91.40;;;;;;4947753;28;94542;-81
2023/02/07 03:38:34;;;;;;;10.88;4.55;;;-1.90;91.30;;;;;;4950137;28;94558;-79
2023/02/07 03:41:07;;;;;;;12.52;5.07;;;-1.90;91.30;;;;;;4950328;28;92402;-80
2023/02/07 03:43:35;;;;;;;12.75;5.47;;;-2.00;91.10;;;;;;4949439;28;92164;-80
2023/02/07 03:46:00;;;;;;;11.23;5.60;;;-2.00;91.30;;;;;;4947195;28;93923;-80
2023/02/07 03:48:26;;;;;;;10.73;4.45;;;-2.00;91.20;;;;;;4949724;28;92861;-76
2023/02/07 03:50:52;;;;;;;11.35;4.93;;;-2.00;91.30;;;;;;4949934;28;93480;-76
2023/02/07 03:53:19;;;;;;;10.45;4.63;;;-2.00;91.20;;;;;;4947906;28;94026;-77
2023/02/07 03:55:45;;;;;;;11.25;4.43;;;-2.00;91.50;;;;;;4949721;28;93773;-77
2023/02/07 03:58:10;;;;;;;11.52;4.20;;;-2.00;91.00;;;;;;4951556;28;93949;-76
2023/02/07 04:00:36;;;;;;;10.60;4.55;;;-2.00;90.90;;;;;;4949626;28;92369;-78
2023/02/07 04:03:03;;;;;;;12.07;4.50;;;-2.10;91.20;;;;;;4946409;28;92217;-77
2023/02/07 04:05:29;;;;;;;11.85;4.72;;;-2.00;91.10;;;;;;4948284;28;92790;-76
2023/02/07 04:07:55;;;;;;;10.27;4.43;;;-2.00;90.70;;;;;;4951160;28;93531;-76
2023/02/07 04:10:20;;;;;;;9.38;3.88;;;-2.10;90.40;;;;;;4946883;28;92227;-76
2023/02/07 04:12:46;;;;;;;11.07;4.47;;;-2.00;90.60;;;;;;4950697;28;92860;-80
2023/02/07 04:15:12;;;;;;;9.63;4.20;;;-2.00;90.30;;;;;;4946573;28;94654;-79
2023/02/07 04:17:38;;;;;;;11.85;4.60;;;-2.00;90.10;;;;;;4948928;28;94192;-80
2023/02/07 04:20:05;;;;;;;9.32;4.28;;;-2.00;89.30;;;;;;4949711;28;92235;-79
2023/02/07 04:22:31;;;;;;;8.98;3.85;;;-2.00;88.90;;;;;;4951216;28;92591;-82
2023/02/07 04:24:57;;;;;;;11.35;4.20;;;-2.00;89.00;;;;;;4949987;28;93819;-80
2023/02/07 04:27:23;;;;;;;11.23;3.95;;;-2.00;88.90;;;;;;4948690;28;93294;-80
2023/02/07 04:29:49;;;;;;;9.80;4.07;;;-2.00;88.40;;;;;;4951003;28;92559;-81
2023/02/07 04:32:14;;;;;;;8.63;3.60;;;-1.90;88.30;;;;;;4953033;28;91761;-79
2023/02/07 04:34:40;;;;;;;10.07;4.25;;;-2.00;88.20;;;;;;4955563;28;93215;-81
2023/02/07 04:37:06;;;;;;;9.90;3.85;;;-2.00;88.30;;;;;;4946386;28;93806;-81
2023/02/07 04:39:32;;;;;;;11.80;4.13;;;-2.00;88.10;;;;;;4949301;28;95044;-79
2023/02/07 04:41:57;;;;;;;8.75;3.53;;;-2.00;88.20;;;;;;4946352;28;92270;-79
2023/02/07 04:44:23;;;;;;;12.10;4.30;;;-2.00;88.00;;;;;;4947631;28;92758;-80
2023/02/07 04:46:49;;;;;;;12.25;4.32;;;-2.10;87.90;;;;;;4945190;28;93362;-82
2023/02/07 04:49:15;;;;;;;9.50;3.95;;;-2.10;88.30;;;;;;4948591;28;92519;-78
2023/02/07 04:51:40;;;;;;;9.98;4.43;;;-2.10;88.50;;;;;;4950826;28;93847;-78
2023/02/07 04:54:06;;;;;;;9.18;4.00;;;-2.20;88.30;;;;;;4954165;28;93099;-79
2023/02/07 04:56:32;;;;;;;8.93;3.40;;;-2.20;88.50;;;;;;4950885;28;93348;-79
2023/02/07 04:58:58;;;;;;;9.20;4.13;;;-2.20;88.80;;;;;;4945717;28;94004;-77
2023/02/07 05:01:23;;;;;;;10.00;4.30;;;-2.20;89.10;;;;;;4938456;28;92547;-81
2023/02/07 05:03:49;;;;;;;10.27;3.47;;;-2.20;90.00;;;;;;4951715;28;93716;-79
2023/02/07 05:06:15;;;;;;;10.57;4.57;;;-2.30;89.80;;;;;;4954428;28;93800;-81
2023/02/07 05:08:40;;;;;;;9.50;4.30;;;-2.30;90.00;;;;;;4951427;28;92349;-77
2023/02/07 05:11:06;;;;;;;9.90;4.22;;;-2.30;90.20;;;;;;4955172;28;93509;-80
2023/02/07 05:13:32;;;;;;;10.60;4.18;;;-2.30;90.10;;;;;;4953331;28;93151;-80
2023/02/07 05:16:00;;;;;;;12.18;4.93;;;-2.30;90.30;;;;;;4950934;28;92490;-82
2023/02/07 05:18:26;;;;;;;9.80;4.05;;;-2.30;90.60;;;;;;4953300;28;92443;-78
2023/02/07 05:20:52;;;;;;;9.95;3.92;;;-2.30;90.60;;;;;;4942599;28;91866;-78
2023/02/07 05:23:18;;;;;;;8.98;4.32;;;-2.30;90.70;;;;;;4944925;28;93450;-80
2023/02/07 05:25:43;;;;;;;9.38;4.47;;;-2.40;90.90;;;;;;4945941;28;93776;-80
2023/02/07 05:28:10;;;;;;;9.18;4.68;;;-2.40;91.10;;;;;;4947018;28;94526;-79
2023/02/07 05:30:35;;;;;;;14.18;4.57;;;-2.40;91.10;;;;;;4952331;28;92663;-82
2023/02/07 05:33:07;;;;;;;11.95;5.20;;;-2.40;91.20;;;;;;4953831;28;93007;-81
2023/02/07 05:35:34;;;;;;;14.00;5.45;;;-2.50;91.20;;;;;;4949837;28;93139;-83
2023/02/07 05:38:00;;;;;;;11.68;5.13;;;-2.50;91.30;;;;;;4951571;28;93600;-82
2023/02/07 05:40:26;;;;;;;13.77;5.55;;;-2.50;91.20;;;;;;4951025;28;92651;-84
2023/02/07 05:42:53;;;;;;;12.77;5.15;;;-2.60;91.50;;;;;;4949078;28;96429;-80
2023/02/07 05:45:19;;;;;;;14.52;5.78;;;-2.60;91.30;;;;;;4951178;28;93305;-81
2023/02/07 05:47:45;;;;;;;13.75;6.03;;;-2.60;91.70;;;;;;4946311;28;92177;-83
2023/02/07 05:50:10;;;;;;;14.18;6.03;;;-2.60;92.00;;;;;;4944725;28;92631;-82
2023/02/07 05:52:36;;;;;;;15.55;6.78;;;-2.60;92.30;;;;;;4950880;28;93659;-81
2023/02/07 05:55:03;;;;;;;17.15;6.85;;;-2.60;92.60;;;;;;4950577;28;94767;-81
2023/02/07 05:57:28;;;;;;;16.33;6.80;;;-2.60;92.90;;;;;;4951401;28;94259;-80
2023/02/07 05:59:54;;;;;;;16.90;6.55;;;-2.60;92.80;;;;;;4954307;28;92235;-79
2023/02/07 06:02:20;;;;;;;17.40;6.78;;;-2.60;92.70;;;;;;4950215;28;93980;-80
2023/02/07 06:04:46;;;;;;;17.05;6.40;;;-2.70;93.10;;;;;;4952468;28;92536;-81
2023/02/07 06:07:11;;;;;;;17.25;6.95;;;-2.70;93.30;;;;;;4944885;28;92516;-81
2023/02/07 06:09:37;;;;;;;15.82;6.50;;;-2.60;93.30;;;;;;4950926;28;93342;-78
2023/02/07 06:12:03;;;;;;;17.80;6.65;;;-2.60;93.40;;;;;;4940794;28;94783;-83
2023/02/07 06:14:32;;;;;;;14.18;6.72;;;-2.60;93.50;;;;;;4941215;28;93876;-85
2023/02/07 06:16:57;;;;;;;14.73;6.85;;;-2.50;93.50;;;;;;4942305;28;94612;-80
2023/02/07 06:19:23;;;;;;;14.70;6.28;;;-2.50;93.70;;;;;;4945380;28;94040;-79
2023/02/07 06:21:49;;;;;;;16.42;6.53;;;-2.50;93.60;;;;;;4945790;28;92897;-82
2023/02/07 06:24:15;;;;;;;13.43;5.93;;;-2.50;93.40;;;;;;4936080;28;95056;-79
2023/02/07 06:26:41;;;;;;;15.07;5.53;;;-2.50;93.10;;;;;;4948484;28;92366;-79
2023/02/07 06:29:06;;;;;;;14.02;4.88;;;-2.40;93.10;;;;;;4942282;28;92738;-83
2023/02/07 06:31:32;;;;;;;17.02;5.40;;;-2.50;92.80;;;;;;4944202;28;94618;-79
2023/02/07 06:33:58;;;;;;;10.95;4.65;;;-2.50;92.80;;;;;;4944315;28;92493;-79
2023/02/07 06:36:23;;;;;;;14.15;5.75;;;-2.50;92.90;;;;;;4949388;28;93368;-78
2023/02/07 06:38:53;;;;;;;14.70;5.80;;;-2.50;93.00;;;;;;4947289;28;92678;-80
2023/02/07 06:41:19;;;;;;;13.93;5.43;;;-2.50;93.20;;;;;;4949245;28;94291;-81
2023/02/07 06:43:44;;;;;;;15.45;5.53;;;-2.50;93.20;;;;;;4952801;28;94458;-82
2023/02/07 06:46:10;;;;;;;14.43;5.82;;;-2.50;93.00;;;;;;4954077;28;92511;-81
2023/02/07 06:48:36;;;;;;;13.25;5.97;;;-2.50;93.00;;;;;;4952970;28;92356;-82
2023/02/07 06:51:02;;;;;;;14.07;5.85;;;-2.50;93.10;;;;;;4951245;28;94002;-78
2023/02/07 06:53:28;;;;;;;14.95;6.22;;;-2.50;93.00;;;;;;4950855;28;94791;-80
2023/02/07 06:55:54;;;;;;;13.77;5.65;;;-2.50;92.90;;;;;;4958288;28;92410;-79
2023/02/07 06:58:20;;;;;;;13.65;5.28;;;-2.50;92.80;;;;;;4954573;28;92612;-80
2023/02/07 07:00:46;;;;;;;14.23;5.13;;;-2.50;92.70;;;;;;4948220;28;92874;-80
2023/02/07 07:03:16;;;;;;;15.15;5.72;;;-2.50;92.60;;;;;;4953987;28;92432;-79
2023/02/07 07:05:43;;;;;;;13.25;5.25;;;-2.50;92.50;;;;;;4950881;28;93448;-80
2023/02/07 07:08:16;;;;;;;13.10;5.03;;;-2.50;92.70;;;;;;4953290;28;92566;-79
2023/02/07 07:10:42;;;;;;;11.27;5.10;;;-2.40;92.70;;;;;;4946946;28;93563;-80
2023/02/07 07:13:08;;;;;;;15.10;4.90;;;-2.30;92.90;;;;;;4956558;28;96320;-80
2023/02/07 07:15:34;;;;;;;13.65;5.07;;;-2.20;92.40;;;;;;4954322;28;93079;-79
2023/02/07 07:17:59;;;;;;;11.05;4.63;;;-2.00;92.30;;;;;;4956127;28;92413;-79
2023/02/07 07:20:25;;;;;;;12.75;5.28;;;-1.90;91.80;;;;;;4954496;28;93709;-79
2023/02/07 07:22:51;;;;;;;8.77;4.05;;;-1.70;91.40;;;;;;4947552;28;93108;-80
2023/02/07 07:25:17;;;;;;;8.55;3.58;;;-0.60;90.60;;;;;;4951278;28;92663;-80
2023/02/07 07:27:42;;;;;;;8.20;4.00;;;1.40;83.40;;;;;;4954736;28;92419;-80
2023/02/07 07:30:09;;;;;;;8.40;4.28;;;3.10;76.30;;;;;;4956259;28;93787;-82
2023/02/07 07:32:35;;;;;;;8.20;3.00;;;4.60;70.20;;;;;;4945834;28;93928;-82
2023/02/07 07:35:01;;;;;;;7.78;3.30;;;5.80;66.10;;;;;;4947840;28;94202;-79
2023/02/07 07:37:27;;;;;;;8.63;4.18;;;6.80;62.20;;;;;;4945634;28;92744;-80
2023/02/07 07:39:52;;;;;;;7.40;3.95;;;7.60;58.90;;;;;;4953676;28;93300;-80
2023/02/07 07:42:18;;;;;;;7.97;4.10;;;8.00;57.30;;;;;;4946371;28;93137;-79
2023/02/07 07:44:44;;;;;;;8.13;3.83;;;8.50;55.60;;;;;;4945984;28;92714;-82
2023/02/07 07:47:09;;;;;;;11.70;4.40;;;9.20;54.20;;;;;;4958821;28;92087;-81
2023/02/07 07:49:35;;;;;;;8.15;4.15;;;9.90;52.30;;;;;;4953012;28;93954;-79
2023/02/07 07:52:01;;;;;;;8.48;4.20;;;10.60;50.40;;;;;;4959978;28;92775;-79
2023/02/07 07:54:26;;;;;;;6.95;4.32;;;11.40;48.90;;;;;;4944720;28;93427;-80
2023/02/07 07:56:52;;;;;;;7.82;4.03;;;12.10;48.50;;;;;;4959366;28;92707;-79
2023/02/07 07:59:18;;;;;;;8.10;4.28;;;12.60;44.40;;;;;;4961073;28;93283;-81
2023/02/07 08:01:44;;;;;;;6.50;3.83;;;13.00;44.30;;;;;;4961215;28;93567;-79
2023/02/07 08:04:09;;;;;;;6.55;3.90;;;13.50;44.30;;;;;;4954394;28;92615;-81
2023/02/07 08:06:35;;;;;;;8.27;4.22;;;13.90;42.90;;;;;;4954082;28;92500;-81
2023/02/07 08:09:01;;;;;;;10.13;3.25;;;13.90;43.10;;;;;;4960497;28;93353;-85
2023/02/07 08:11:26;;;;;;;7.78;4.20;;;14.00;42.20;;;;;;4959407;28;92376;-84
2023/02/07 08:13:52;;;;;;;6.93;4.63;;;14.10;42.20;;;;;;4953307;28;92400;-79
2023/02/07 08:16:18;;;;;;;7.13;4.80;;;14.10;42.10;;;;;;4955144;28;92067;-79
2023/02/07 08:18:43;;;;;;;6.65;3.88;;;14.00;42.90;;;;;;4955170;28;94273;-80
2023/02/07 08:21:09;;;;;;;7.90;4.45;;;14.00;42.10;;;;;;4957643;28;93758;-80
2023/02/07 08:23:35;;;;;;;6.55;3.92;;;13.20;43.20;;;;;;4957575;28;92109;-78
2023/02/07 08:26:02;;;;;;;6.80;4.45;;;12.40;43.80;;;;;;4959403;28;92298;-81
2023/02/07 08:28:28;;;;;;;6.55;4.25;;;12.60;44.00;;;;;;4960785;28;93276;-79
2023/02/07 08:30:58;;;;;;;6.22;3.53;;;12.50;43.90;;;;;;4958608;28;93805;-81
2023/02/07 08:33:23;;;;;;;7.43;4.63;;;12.80;44.40;;;;;;4937311;28;93117;-82
2023/02/07 08:35:50;;;;;;;7.82;4.93;;;13.50;42.90;;;;;;4953830;28;91762;-80
2023/02/07 08:38:15;;;;;;;7.53;5.05;;;14.50;42.20;;;;;;4955496;28;93132;-81
2023/02/07 08:40:41;;;;;;;7.80;5.22;;;15.60;40.20;;;;;;4955410;28;93644;-81
2023/02/07 08:43:11;;;;;;;8.82;4.78;;;16.80;38.80;;;;;;4951172;28;93550;-83
2023/02/07 08:45:40;;;;;;;7.10;3.50;;;17.40;37.60;;;;;;4953763;28;92702;-81
2023/02/07 08:48:07;;;;;;;7.43;5.03;;;18.10;37.20;;;;;;4948700;28;92664;-80
2023/02/07 08:50:32;;;;;;;8.30;4.82;;;18.20;36.00;;;;;;4954541;28;93604;-80
2023/02/07 08:52:58;;;;;;;8.80;5.57;;;18.70;35.30;;;;;;4949288;28;92356;-85
2023/02/07 08:55:25;;;;;;;8.90;4.65;;;19.70;34.80;;;;;;4954553;28;92405;-83
2023/02/07 08:57:51;;;;;;;7.78;4.82;;;20.90;34.80;;;;;;4952121;28;93227;-82
2023/02/07 09:00:17;;;;;;;10.07;6.10;;;20.80;32.20;;;;;;4953622;28;93251;-82
2023/02/07 09:02:43;;;;;;;10.05;6.18;;;21.30;33.50;;;;;;4952205;28;92123;-81
2023/02/07 09:05:09;;;;;;;8.13;5.45;;;22.30;32.80;;;;;;4956672;28;92713;-85
2023/02/07 09:07:35;;;;;;;8.80;6.38;;;22.30;31.80;;;;;;4954565;28;94239;-85
2023/02/07 09:10:03;;;;;;;9.15;6.40;;;22.10;30.30;;;;;;4952286;28;94376;-83
2023/02/07 09:12:30;;;;;;;8.02;5.93;;;21.80;31.80;;;;;;4955058;28;92812;-83
2023/02/07 09:14:55;;;;;;;8.15;6.35;;;22.40;30.90;;;;;;4954306;28;92591;-84
2023/02/07 09:17:21;;;;;;;9.15;5.10;;;22.80;30.90;;;;;;4949303;28;92710;-83
2023/02/07 09:19:47;;;;;;;8.77;6.32;;;23.40;30.50;;;;;;4954863;28;92804;-83
2023/02/07 09:22:13;;;;;;;6.93;5.55;;;23.80;30.00;;;;;;4950031;28;92581;-82
2023/02/07 09:24:38;;;;;;;6.65;3.95;;;24.00;29.80;;;;;;4950908;28;91774;-83
2023/02/07 09:27:04;;;;;;;9.65;5.20;;;23.80;29.40;;;;;;4948639;28;94247;-83
2023/02/07 09:29:29;;;;;;;6.35;5.03;;;22.90;30.00;;;;;;4953705;28;93236;-81
2023/02/07 09:31:55;;;;;;;7.75;5.85;;;22.70;30.00;;;;;;4951503;28;93571;-84
2023/02/07 09:34:21;;;;;;;7.10;5.82;;;21.80;30.70;;;;;;4950028;28;92501;-83
2023/02/07 09:36:48;;;;;;;7.30;5.88;;;20.10;32.00;;;;;;4956320;28;93367;-82
2023/02/07 09:39:15;;;;;;;13.05;6.63;;;18.10;34.50;;;;;;4954083;28;93001;-83
2023/02/07 09:41:46;;;;;;;9.68;6.43;;;16.20;37.10;;;;;;4957173;28;92486;-84
2023/02/07 09:44:24;;;;;;;14.20;7.07;;;15.10;39.30;;;;;;4946474;28;92179;-81
2023/02/07 09:47:09;;;;;;;10.10;5.85;;;13.70;41.30;;;;;;4950242;28;93671;-81
2023/02/07 09:49:42;;;;;;;9.88;6.32;;;12.70;43.10;;;;;;4960283;28;92980;-81
2023/02/07 09:52:15;;;;;;;13.38;7.03;;;12.70;44.90;;;;;;4959156;28;92746;-81
2023/02/07 09:54:44;;;;;;;9.63;6.68;;;12.70;44.40;;;;;;4959839;28;92550;-82
2023/02/07 09:57:18;;;;;;;15.05;7.78;;;12.40;44.10;;;;;;4955520;28;93405;-83
2023/02/07 09:59:55;;;;;;;12.40;7.07;;;12.90;45.30;;;;;;4953251;28;93738;-82
2023/02/07 10:02:24;;;;;;;14.73;7.20;;;14.40;43.40;;;;;;4955050;28;94488;-82
2023/02/07 10:04:53;;;;;;;10.60;7.53;;;15.70;40.90;;;;;;4955972;28;92501;-83
2023/02/07 10:07:19;;;;;;;9.93;7.28;;;17.40;38.50;;;;;;4950709;28;92658;-82
2023/02/07 10:09:46;;;;;;;9.80;7.88;;;18.10;36.80;;;;;;4945776;28;92745;-82
2023/02/07 10:12:32;;;;;;;9.20;7.30;;;18.30;36.40;;;;;;4947718;28;93135;-85
2023/02/07 10:15:31;;;;;;;10.43;7.85;;;18.40;36.50;;;;;;4952805;28;91868;-82
2023/02/07 10:18:34;;;;;;;10.30;7.85;;;18.70;36.10;;;;;;4949903;28;93875;-83
2023/02/07 10:21:37;;;;;;;11.20;7.50;;;20.00;35.00;;;;;;4948678;28;93717;-83
2023/02/07 10:24:38;;;;;;;10.30;8.20;;;21.30;33.40;;;;;;4947002;28;93354;-83
2023/02/07 10:27:15;;;;;;;10.02;7.93;;;21.70;32.30;;;;;;4954381;28;92486;-84
2023/02/07 10:30:03;;;;;;;11.25;8.70;;;22.40;31.80;;;;;;4946032;28;94807;-83
2023/02/07 10:32:35;;;;;;;12.10;8.40;;;22.60;31.60;;;;;;4951718;28;92574;-82
2023/02/07 10:35:14;;;;;;;10.93;8.93;;;22.20;31.30;;;;;;4945457;28;92342;-83
2023/02/07 10:37:42;;;;;;;11.32;8.70;;;22.20;31.80;;;;;;4956557;28;92574;-83
2023/02/07 10:40:27;;;;;;;9.00;7.35;;;22.20;31.60;;;;;;4955347;28;92906;-83
2023/02/07 10:43:03;;;;;;;12.18;8.82;;;21.80;31.60;;;;;;4954662;28;92858;-83
2023/02/07 10:45:29;;;;;;;;;;;21.50;33.20;;;;;;4957530;28;92348;-82
2023/02/07 10:47:56;;;;;;;9.35;6.97;;;20.80;32.30;;;;;;4958557;28;92695;-83
2023/02/07 10:50:24;;;;;;;9.65;7.68;;;19.60;33.70;;;;;;4953930;28;95026;-81
2023/02/07 10:52:53;;;;;;;9.80;7.30;;;17.80;35.00;;;;;;4956942;28;94899;-82
2023/02/07 10:55:38;;;;;;;9.95;7.38;;;16.10;37.70;;;;;;4953781;28;92552;-82
2023/02/07 10:58:04;;;;;;;11.57;7.43;;;13.80;41.30;;;;;;4956992;28;92484;-81
2023/02/07 11:00:32;;;;;;;12.45;7.65;;;12.00;45.10;;;;;;4953019;28;95468;-85
2023/02/07 11:03:06;;;;;;;10.90;7.55;;;10.60;48.00;;;;;;4939418;28;92996;-82
2023/02/07 11:05:50;;;;;;;10.48;7.05;;;9.50;50.90;;;;;;4953648;28;92605;-80
2023/02/07 11:08:21;;;;;;;13.55;7.45;;;8.50;53.10;;;;;;4955022;28;91453;-82
2023/02/07 11:10:49;;;;;;;12.38;7.13;;;7.70;55.70;;;;;;4956432;28;93329;-79
2023/02/07 11:13:21;;;;;;;11.05;6.75;;;7.00;57.80;;;;;;4946663;28;94767;-79
2023/02/07 11:15:49;;;;;;;12.20;6.22;;;6.60;58.70;;;;;;4951565;28;93841;-79
2023/02/07 11:18:36;;;;;;;12.25;6.85;;;6.40;61.60;;;;;;4945045;28;92489;-78
2023/02/07 11:21:07;;;;;;;12.73;7.38;;;6.10;61.50;;;;;;4946380;28;93767;-77
2023/02/07 11:23:33;;;;;;;13.98;6.82;;;5.90;61.20;;;;;;4945383;28;94455;-79
2023/02/07 11:26:02;;;;;;;11.90;6.88;;;5.70;61.80;;;;;;4947734;28;93886;-78
2023/02/07 11:28:30;;;;;;;12.00;6.82;;;5.60;62.50;;;;;;4946466;28;92588;-79
2023/02/07 11:31:01;;;;;;;11.77;6.85;;;5.40;63.20;;;;;;4950378;28;93952;-79
2023/02/07 11:33:29;;;;;;;12.15;5.93;;;5.30;63.40;;;;;;4944201;28;93511;-79
2023/02/07 11:36:17;;;;;;;14.85;7.22;;;5.30;63.90;;;;;;4945943;28;94220;-79
2023/02/07 11:39:14;;;;;;;12.38;7.35;;;5.10;64.50;;;;;;4942305;28;94304;-79
2023/02/07 11:41:40;;;;;;;14.20;7.38;;;4.90;65.50;;;;;;4937563;28;95454;-81
2023/02/07 11:44:17;;;;;;;14.45;6.93;;;4.60;65.40;;;;;;4940171;28;94649;-80
2023/02/07 11:46:46;;;;;;;11.77;6.60;;;4.60;67.30;;;;;;4949230;28;92690;-79
2023/02/07 11:49:28;;;;;;;13.80;7.28;;;4.60;67.30;;;;;;4940303;28;94050;-79
2023/02/07 11:52:00;;;;;;;13.23;6.72;;;4.70;67.00;;;;;;4931482;28;93952;-80
2023/02/07 11:54:27;;;;;;;11.90;6.55;;;4.60;67.40;;;;;;4941986;28;94006;-81
2023/02/07 11:57:01;;;;;;;13.27;6.82;;;4.60;66.10;;;;;;4949684;28;94486;-81
2023/02/07 11:59:27;;;;;;;12.57;6.80;;;4.40;66.70;;;;;;4955760;28;91651;-82
2023/02/07 12:01:56;;;;;;;12.10;6.80;;;4.10;66.90;;;;;;4964564;28;93594;-81
2023/02/07 12:04:32;;;;;;;13.13;6.50;;;4.20;67.00;;;;;;4955127;28;92548;-80
2023/02/07 12:07:06;;;;;;;18.65;7.38;;;4.10;67.70;;;;;;4953645;28;93211;-80
2023/02/07 12:09:43;;;;;;;14.52;6.95;;;4.10;67.70;;;;;;4955229;28;92392;-82
2023/02/07 12:12:26;;;;;;;17.05;7.72;;;4.10;67.80;;;;;;4942291;28;92358;-81
2023/02/07 12:15:02;;;;;;;12.88;6.80;;;3.90;68.30;;;;;;4955408;28;93434;-80
2023/02/07 12:17:42;;;;;;;15.75;7.43;;;3.90;67.70;;;;;;4955526;28;93014;-83
2023/02/07 12:20:22;;;;;;;16.15;7.60;;;3.90;68.60;;;;;;4957212;28;92716;-84
2023/02/07 12:22:57;;;;;;;14.52;7.25;;;4.00;68.10;;;;;;4958936;28;93376;-80
2023/02/07 12:25:35;;;;;;;14.05;6.82;;;4.10;68.50;;;;;;4954287;28;93336;-78
2023/02/07 12:28:12;;;;;;;13.07;7.10;;;4.00;69.80;;;;;;4953207;28;94215;-79
2023/02/07 12:30:42;;;;;;;13.20;6.63;;;4.00;68.60;;;;;;4954321;28;93961;-79
2023/02/07 12:33:26;;;;;;;15.15;7.57;;;4.00;69.10;;;;;;4952923;28;94628;-79
2023/02/07 12:36:09;;;;;;;13.95;7.43;;;4.00;69.50;;;;;;4951327;28;93240;-79
2023/02/07 12:39:05;;;;;;;14.93;6.93;;;4.00;68.30;;;;;;4954417;28;92365;-78
2023/02/07 12:41:44;;;;;;;;;;;4.00;69.00;;;;;;4945203;28;92173;-78
2023/02/07 12:44:25;;;;;;;13.05;6.88;;;4.00;68.90;;;;;;4956277;28;93736;-78
2023/02/07 12:47:29;;;;;;;14.82;6.75;;;4.00;68.70;;;;;;4955223;28;92874;-78
2023/02/07 12:50:24;;;;;;;16.10;7.90;;;4.00;69.20;;;;;;4953142;28;92373;-78
2023/02/07 12:53:25;;;;;;;15.65;7.32;;;4.10;68.60;;;;;;4956289;28;91798;-78
2023/02/07 12:56:08;;;;;;;12.75;6.50;;;4.20;68.20;;;;;;4955962;28;93676;-79
2023/02/07 12:59:05;;;;;;;12.65;6.40;;;4.10;67.60;;;;;;4949957;28;92915;-79